sensor_id;sensor_type;location;lat;lon;timestamp;P1;durP1;ratioP1;P2;durP2;ratioP2
20251;SDS011;10284;58.364;15.550;2022-08-01T00:00:00;1.35;;;0.90;;
20251;SDS011;10284;58.364;15.550;2022-08-01T00:02:27;1.45;;;1.10;;
20251;SDS011;10284;58.364;15.550;2022-08-01T00:04:54;2.55;;;1.00;;
20251;SDS011;10284;58.364;15.550;2022-08-01T00:07:19;1.00;;;0.90;;
20251;SDS011;10284;58.364;15.550;2022-08-01T00:09:45;2.75;;;0.80;;
20251;SDS011;10284;58.364;15.550;2022-08-01T00:12:10;1.80;;;1.20;;
20251;SDS011;10284;58.364;15.550;2022-08-01T00:14:36;3.88;;;1.13;;
20251;SDS011;10284;58.364;15.550;2022-08-01T00:17:01;1.17;;;0.90;;
20251;SDS011;10284;58.364;15.550;2022-08-01T00:19:27;2.88;;;1.00;;
20251;SDS011;10284;58.364;15.550;2022-08-01T00:21:52;1.70;;;0.90;;
20251;SDS011;10284;58.364;15.550;2022-08-01T00:24:18;1.88;;;0.85;;
20251;SDS011;10284;58.364;15.550;2022-08-01T00:26:43;1.48;;;1.10;;
20251;SDS011;10284;58.364;15.550;2022-08-01T00:29:09;1.10;;;1.00;;
20251;SDS011;10284;58.364;15.550;2022-08-01T00:31:34;1.83;;;1.08;;
20251;SDS011;10284;58.364;15.550;2022-08-01T00:34:00;2.30;;;1.10;;
20251;SDS011;10284;58.364;15.550;2022-08-01T00:36:25;2.28;;;1.00;;
20251;SDS011;10284;58.364;15.550;2022-08-01T00:38:50;0.90;;;0.80;;
20251;SDS011;10284;58.364;15.550;2022-08-01T00:41:16;1.10;;;0.98;;
20251;SDS011;10284;58.364;15.550;2022-08-01T00:43:41;3.13;;;1.20;;
20251;SDS011;10284;58.364;15.550;2022-08-01T00:46:07;3.35;;;1.10;;
20251;SDS011;10284;58.364;15.550;2022-08-01T00:48:32;2.33;;;0.95;;
20251;SDS011;10284;58.364;15.550;2022-08-01T00:50:58;1.35;;;0.90;;
20251;SDS011;10284;58.364;15.550;2022-08-01T00:53:23;1.85;;;1.00;;
20251;SDS011;10284;58.364;15.550;2022-08-01T00:55:50;2.78;;;1.25;;
20251;SDS011;10284;58.364;15.550;2022-08-01T00:58:15;1.52;;;0.88;;
20251;SDS011;10284;58.364;15.550;2022-08-01T01:00:40;1.58;;;1.13;;
20251;SDS011;10284;58.364;15.550;2022-08-01T01:03:06;1.02;;;0.93;;
20251;SDS011;10284;58.364;15.550;2022-08-01T01:05:32;1.20;;;1.00;;
20251;SDS011;10284;58.364;15.550;2022-08-01T01:08:04;1.00;;;0.90;;
20251;SDS011;10284;58.364;15.550;2022-08-01T01:10:39;1.83;;;1.17;;
20251;SDS011;10284;58.364;15.550;2022-08-01T01:13:18;1.55;;;1.08;;
20251;SDS011;10284;58.364;15.550;2022-08-01T01:15:52;1.20;;;1.10;;
20251;SDS011;10284;58.364;15.550;2022-08-01T01:18:24;0.82;;;0.80;;
20251;SDS011;10284;58.364;15.550;2022-08-01T01:21:23;1.05;;;0.98;;
20251;SDS011;10284;58.364;15.550;2022-08-01T01:23:45;1.30;;;1.02;;
20251;SDS011;10284;58.364;15.550;2022-08-01T01:26:21;1.10;;;1.00;;
20251;SDS011;10284;58.364;15.550;2022-08-01T01:31:52;1.90;;;1.10;;
20251;SDS011;10284;58.364;15.550;2022-08-01T01:34:22;2.80;;;1.08;;
20251;SDS011;10284;58.364;15.550;2022-08-01T01:36:49;1.95;;;1.23;;
20251;SDS011;10284;58.364;15.550;2022-08-01T01:39:15;1.40;;;1.08;;
20251;SDS011;10284;58.364;15.550;2022-08-01T01:41:42;1.17;;;0.93;;
20251;SDS011;10284;58.364;15.550;2022-08-01T01:44:08;0.95;;;0.95;;
20251;SDS011;10284;58.364;15.550;2022-08-01T01:46:34;1.30;;;1.20;;
20251;SDS011;10284;58.364;15.550;2022-08-01T01:49:00;1.80;;;1.02;;
20251;SDS011;10284;58.364;15.550;2022-08-01T01:51:27;0.98;;;0.88;;
20251;SDS011;10284;58.364;15.550;2022-08-01T01:53:54;1.42;;;1.30;;
20251;SDS011;10284;58.364;15.550;2022-08-01T01:56:20;0.98;;;0.90;;
20251;SDS011;10284;58.364;15.550;2022-08-01T01:58:52;1.55;;;0.93;;
20251;SDS011;10284;58.364;15.550;2022-08-01T02:01:21;1.20;;;1.10;;
20251;SDS011;10284;58.364;15.550;2022-08-01T02:03:47;1.67;;;1.05;;
20251;SDS011;10284;58.364;15.550;2022-08-01T02:06:13;1.13;;;1.02;;
20251;SDS011;10284;58.364;15.550;2022-08-01T02:08:40;2.25;;;0.90;;
20251;SDS011;10284;58.364;15.550;2022-08-01T02:11:05;1.30;;;1.20;;
20251;SDS011;10284;58.364;15.550;2022-08-01T02:13:43;1.13;;;0.90;;
20251;SDS011;10284;58.364;15.550;2022-08-01T02:16:12;1.45;;;1.00;;
20251;SDS011;10284;58.364;15.550;2022-08-01T02:18:38;1.05;;;1.05;;
20251;SDS011;10284;58.364;15.550;2022-08-01T02:21:05;2.78;;;1.20;;
20251;SDS011;10284;58.364;15.550;2022-08-01T02:23:36;1.20;;;1.10;;
20251;SDS011;10284;58.364;15.550;2022-08-01T02:26:03;1.13;;;1.00;;
20251;SDS011;10284;58.364;15.550;2022-08-01T02:31:24;0.98;;;0.95;;
20251;SDS011;10284;58.364;15.550;2022-08-01T02:34:00;1.90;;;1.10;;
20251;SDS011;10284;58.364;15.550;2022-08-01T02:36:32;1.05;;;1.00;;
20251;SDS011;10284;58.364;15.550;2022-08-01T02:39:00;1.30;;;1.02;;
20251;SDS011;10284;58.364;15.550;2022-08-01T02:41:27;1.88;;;1.20;;
20251;SDS011;10284;58.364;15.550;2022-08-01T02:43:56;1.40;;;1.10;;
20251;SDS011;10284;58.364;15.550;2022-08-01T02:46:27;1.55;;;1.25;;
20251;SDS011;10284;58.364;15.550;2022-08-01T02:48:58;1.88;;;1.20;;
20251;SDS011;10284;58.364;15.550;2022-08-01T02:51:25;1.05;;;1.05;;
20251;SDS011;10284;58.364;15.550;2022-08-01T02:53:51;1.33;;;1.10;;
20251;SDS011;10284;58.364;15.550;2022-08-01T02:56:17;1.38;;;1.17;;
20251;SDS011;10284;58.364;15.550;2022-08-01T02:58:43;1.20;;;1.10;;
20251;SDS011;10284;58.364;15.550;2022-08-01T03:01:09;1.33;;;1.20;;
20251;SDS011;10284;58.364;15.550;2022-08-01T03:03:36;1.40;;;1.30;;
20251;SDS011;10284;58.364;15.550;2022-08-01T03:06:02;1.20;;;1.10;;
20251;SDS011;10284;58.364;15.550;2022-08-01T03:08:28;2.65;;;1.20;;
20251;SDS011;10284;58.364;15.550;2022-08-01T03:10:55;1.25;;;1.15;;
20251;SDS011;10284;58.364;15.550;2022-08-01T03:13:21;1.13;;;1.02;;
20251;SDS011;10284;58.364;15.550;2022-08-01T03:15:47;2.85;;;1.27;;
20251;SDS011;10284;58.364;15.550;2022-08-01T03:18:13;1.48;;;1.10;;
20251;SDS011;10284;58.364;15.550;2022-08-01T03:20:39;2.05;;;1.20;;
20251;SDS011;10284;58.364;15.550;2022-08-01T03:23:05;1.65;;;1.00;;
20251;SDS011;10284;58.364;15.550;2022-08-01T03:25:36;1.25;;;1.10;;
20251;SDS011;10284;58.364;15.550;2022-08-01T03:28:04;1.63;;;1.30;;
20251;SDS011;10284;58.364;15.550;2022-08-01T03:30:31;1.00;;;1.00;;
20251;SDS011;10284;58.364;15.550;2022-08-01T03:32:57;1.08;;;1.00;;
20251;SDS011;10284;58.364;15.550;2022-08-01T03:35:23;1.17;;;1.00;;
20251;SDS011;10284;58.364;15.550;2022-08-01T03:37:52;1.20;;;1.10;;
20251;SDS011;10284;58.364;15.550;2022-08-01T03:40:27;1.05;;;1.00;;
20251;SDS011;10284;58.364;15.550;2022-08-01T03:43:02;0.88;;;0.88;;
20251;SDS011;10284;58.364;15.550;2022-08-01T03:45:31;1.20;;;1.10;;
20251;SDS011;10284;58.364;15.550;2022-08-01T03:48:01;2.10;;;1.20;;
20251;SDS011;10284;58.364;15.550;2022-08-01T03:50:29;1.20;;;1.10;;
20251;SDS011;10284;58.364;15.550;2022-08-01T03:52:57;1.23;;;0.90;;
20251;SDS011;10284;58.364;15.550;2022-08-01T03:55:22;1.40;;;1.15;;
20251;SDS011;10284;58.364;15.550;2022-08-01T03:57:48;1.40;;;1.27;;
20251;SDS011;10284;58.364;15.550;2022-08-01T04:00:15;2.10;;;1.00;;
20251;SDS011;10284;58.364;15.550;2022-08-01T04:02:44;0.85;;;0.85;;
20251;SDS011;10284;58.364;15.550;2022-08-01T04:05:10;1.20;;;1.10;;
20251;SDS011;10284;58.364;15.550;2022-08-01T04:07:36;1.10;;;1.00;;
20251;SDS011;10284;58.364;15.550;2022-08-01T04:10:04;2.03;;;1.38;;
20251;SDS011;10284;58.364;15.550;2022-08-01T04:12:30;1.38;;;1.20;;
20251;SDS011;10284;58.364;15.550;2022-08-01T04:14:55;1.05;;;0.95;;
20251;SDS011;10284;58.364;15.550;2022-08-01T04:17:21;1.65;;;1.15;;
20251;SDS011;10284;58.364;15.550;2022-08-01T04:19:46;1.42;;;1.10;;
20251;SDS011;10284;58.364;15.550;2022-08-01T04:22:13;0.90;;;0.90;;
20251;SDS011;10284;58.364;15.550;2022-08-01T04:24:39;1.10;;;1.00;;
20251;SDS011;10284;58.364;15.550;2022-08-01T04:27:09;1.33;;;1.10;;
20251;SDS011;10284;58.364;15.550;2022-08-01T04:29:37;1.25;;;1.00;;
20251;SDS011;10284;58.364;15.550;2022-08-01T04:32:03;1.63;;;1.23;;
20251;SDS011;10284;58.364;15.550;2022-08-01T04:34:30;1.92;;;1.27;;
20251;SDS011;10284;58.364;15.550;2022-08-01T04:36:57;1.95;;;1.23;;
20251;SDS011;10284;58.364;15.550;2022-08-01T04:39:23;2.20;;;1.08;;
20251;SDS011;10284;58.364;15.550;2022-08-01T04:41:52;0.90;;;0.90;;
20251;SDS011;10284;58.364;15.550;2022-08-01T04:44:21;2.75;;;1.13;;
20251;SDS011;10284;58.364;15.550;2022-08-01T04:46:47;1.90;;;1.27;;
20251;SDS011;10284;58.364;15.550;2022-08-01T04:49:13;1.20;;;1.10;;
20251;SDS011;10284;58.364;15.550;2022-08-01T04:51:51;1.52;;;1.10;;
20251;SDS011;10284;58.364;15.550;2022-08-01T04:54:22;2.13;;;1.33;;
20251;SDS011;10284;58.364;15.550;2022-08-01T04:56:48;1.27;;;1.17;;
20251;SDS011;10284;58.364;15.550;2022-08-01T04:59:13;1.10;;;0.80;;
20251;SDS011;10284;58.364;15.550;2022-08-01T05:01:58;0.90;;;0.90;;
20251;SDS011;10284;58.364;15.550;2022-08-01T05:04:23;1.35;;;1.10;;
20251;SDS011;10284;58.364;15.550;2022-08-01T05:06:48;1.08;;;0.98;;
20251;SDS011;10284;58.364;15.550;2022-08-01T05:09:14;1.88;;;1.10;;
20251;SDS011;10284;58.364;15.550;2022-08-01T05:11:39;1.45;;;1.20;;
20251;SDS011;10284;58.364;15.550;2022-08-01T05:14:05;1.38;;;1.00;;
20251;SDS011;10284;58.364;15.550;2022-08-01T05:16:31;1.88;;;1.10;;
20251;SDS011;10284;58.364;15.550;2022-08-01T05:18:56;1.58;;;1.00;;
20251;SDS011;10284;58.364;15.550;2022-08-01T05:21:22;4.85;;;1.15;;
20251;SDS011;10284;58.364;15.550;2022-08-01T05:23:47;1.33;;;1.00;;
20251;SDS011;10284;58.364;15.550;2022-08-01T05:26:14;2.83;;;1.10;;
20251;SDS011;10284;58.364;15.550;2022-08-01T05:28:39;1.80;;;1.10;;
20251;SDS011;10284;58.364;15.550;2022-08-01T05:31:05;2.28;;;1.17;;
20251;SDS011;10284;58.364;15.550;2022-08-01T05:33:30;1.83;;;1.10;;
20251;SDS011;10284;58.364;15.550;2022-08-01T05:35:55;1.13;;;0.90;;
20251;SDS011;10284;58.364;15.550;2022-08-01T05:38:21;1.00;;;1.00;;
20251;SDS011;10284;58.364;15.550;2022-08-01T05:40:46;3.80;;;1.00;;
20251;SDS011;10284;58.364;15.550;2022-08-01T05:43:12;0.95;;;0.90;;
20251;SDS011;10284;58.364;15.550;2022-08-01T05:45:37;1.08;;;0.95;;
20251;SDS011;10284;58.364;15.550;2022-08-01T05:48:03;1.20;;;1.10;;
20251;SDS011;10284;58.364;15.550;2022-08-01T05:50:28;1.42;;;1.10;;
20251;SDS011;10284;58.364;15.550;2022-08-01T05:52:53;1.98;;;1.20;;
20251;SDS011;10284;58.364;15.550;2022-08-01T05:55:19;3.30;;;1.25;;
20251;SDS011;10284;58.364;15.550;2022-08-01T05:57:44;1.20;;;1.10;;
20251;SDS011;10284;58.364;15.550;2022-08-01T06:00:10;2.63;;;1.13;;
20251;SDS011;10284;58.364;15.550;2022-08-01T06:02:41;3.17;;;1.33;;
20251;SDS011;10284;58.364;15.550;2022-08-01T06:05:07;1.55;;;0.90;;
20251;SDS011;10284;58.364;15.550;2022-08-01T06:07:33;1.30;;;1.10;;
20251;SDS011;10284;58.364;15.550;2022-08-01T06:09:58;1.55;;;1.20;;
20251;SDS011;10284;58.364;15.550;2022-08-01T06:12:24;1.00;;;0.90;;
20251;SDS011;10284;58.364;15.550;2022-08-01T06:14:49;1.20;;;1.10;;
20251;SDS011;10284;58.364;15.550;2022-08-01T06:17:18;1.23;;;1.00;;
20251;SDS011;10284;58.364;15.550;2022-08-01T06:19:43;2.10;;;1.10;;
20251;SDS011;10284;58.364;15.550;2022-08-01T06:22:09;1.20;;;1.10;;
20251;SDS011;10284;58.364;15.550;2022-08-01T06:24:34;1.70;;;1.10;;
20251;SDS011;10284;58.364;15.550;2022-08-01T06:26:59;1.30;;;1.10;;
20251;SDS011;10284;58.364;15.550;2022-08-01T06:29:25;1.98;;;1.10;;
20251;SDS011;10284;58.364;15.550;2022-08-01T06:31:50;1.52;;;0.93;;
20251;SDS011;10284;58.364;15.550;2022-08-01T06:34:15;1.90;;;1.17;;
20251;SDS011;10284;58.364;15.550;2022-08-01T06:36:41;2.25;;;1.17;;
20251;SDS011;10284;58.364;15.550;2022-08-01T06:39:06;1.60;;;1.17;;
20251;SDS011;10284;58.364;15.550;2022-08-01T06:41:32;3.90;;;1.33;;
20251;SDS011;10284;58.364;15.550;2022-08-01T06:43:57;2.72;;;1.30;;
20251;SDS011;10284;58.364;15.550;2022-08-01T06:46:24;1.23;;;1.13;;
20251;SDS011;10284;58.364;15.550;2022-08-01T06:48:50;1.30;;;1.20;;
20251;SDS011;10284;58.364;15.550;2022-08-01T06:51:15;1.20;;;1.10;;
20251;SDS011;10284;58.364;15.550;2022-08-01T06:53:44;4.53;;;1.35;;
20251;SDS011;10284;58.364;15.550;2022-08-01T06:56:10;1.92;;;1.30;;
20251;SDS011;10284;58.364;15.550;2022-08-01T06:58:35;2.75;;;1.08;;
20251;SDS011;10284;58.364;15.550;2022-08-01T07:01:02;1.20;;;1.10;;
20251;SDS011;10284;58.364;15.550;2022-08-01T07:03:30;1.40;;;1.23;;
20251;SDS011;10284;58.364;15.550;2022-08-01T07:05:56;1.92;;;1.35;;
20251;SDS011;10284;58.364;15.550;2022-08-01T07:08:22;3.13;;;1.27;;
20251;SDS011;10284;58.364;15.550;2022-08-01T07:10:47;1.73;;;1.30;;
20251;SDS011;10284;58.364;15.550;2022-08-01T07:13:13;5.88;;;1.30;;
20251;SDS011;10284;58.364;15.550;2022-08-01T07:15:39;2.15;;;1.20;;
20251;SDS011;10284;58.364;15.550;2022-08-01T07:18:05;1.15;;;1.00;;
20251;SDS011;10284;58.364;15.550;2022-08-01T07:20:30;1.85;;;1.38;;
20251;SDS011;10284;58.364;15.550;2022-08-01T07:22:56;2.53;;;1.27;;
20251;SDS011;10284;58.364;15.550;2022-08-01T07:25:21;1.55;;;1.13;;
20251;SDS011;10284;58.364;15.550;2022-08-01T07:27:47;2.30;;;1.05;;
20251;SDS011;10284;58.364;15.550;2022-08-01T07:30:12;1.20;;;1.10;;
20251;SDS011;10284;58.364;15.550;2022-08-01T07:32:38;1.52;;;1.10;;
20251;SDS011;10284;58.364;15.550;2022-08-01T07:35:03;2.33;;;1.10;;
20251;SDS011;10284;58.364;15.550;2022-08-01T07:37:29;3.45;;;1.25;;
20251;SDS011;10284;58.364;15.550;2022-08-01T07:39:54;2.75;;;1.00;;
20251;SDS011;10284;58.364;15.550;2022-08-01T07:42:20;4.10;;;1.00;;
20251;SDS011;10284;58.364;15.550;2022-08-01T07:44:45;0.95;;;0.90;;
20251;SDS011;10284;58.364;15.550;2022-08-01T07:47:11;1.40;;;1.30;;
20251;SDS011;10284;58.364;15.550;2022-08-01T07:49:36;0.90;;;0.90;;
20251;SDS011;10284;58.364;15.550;2022-08-01T07:52:02;2.25;;;0.82;;
20251;SDS011;10284;58.364;15.550;2022-08-01T07:54:28;1.60;;;1.00;;
20251;SDS011;10284;58.364;15.550;2022-08-01T07:56:54;2.30;;;1.00;;
20251;SDS011;10284;58.364;15.550;2022-08-01T07:59:20;2.50;;;1.17;;
20251;SDS011;10284;58.364;15.550;2022-08-01T08:01:48;1.88;;;1.27;;
20251;SDS011;10284;58.364;15.550;2022-08-01T08:04:15;2.05;;;1.13;;
20251;SDS011;10284;58.364;15.550;2022-08-01T08:06:40;2.85;;;1.27;;
20251;SDS011;10284;58.364;15.550;2022-08-01T08:09:06;2.78;;;1.25;;
20251;SDS011;10284;58.364;15.550;2022-08-01T08:11:31;1.73;;;1.00;;
20251;SDS011;10284;58.364;15.550;2022-08-01T08:13:57;2.03;;;1.00;;
20251;SDS011;10284;58.364;15.550;2022-08-01T08:16:22;2.20;;;1.00;;
20251;SDS011;10284;58.364;15.550;2022-08-01T08:18:48;2.10;;;1.08;;
20251;SDS011;10284;58.364;15.550;2022-08-01T08:21:13;2.95;;;1.02;;
20251;SDS011;10284;58.364;15.550;2022-08-01T08:23:38;2.35;;;1.20;;
20251;SDS011;10284;58.364;15.550;2022-08-01T08:26:22;1.95;;;1.10;;
20251;SDS011;10284;58.364;15.550;2022-08-01T08:28:49;9.35;;;1.42;;
20251;SDS011;10284;58.364;15.550;2022-08-01T08:31:14;1.20;;;1.10;;
20251;SDS011;10284;58.364;15.550;2022-08-01T08:33:40;2.15;;;1.10;;
20251;SDS011;10284;58.364;15.550;2022-08-01T08:36:05;3.00;;;1.55;;
20251;SDS011;10284;58.364;15.550;2022-08-01T08:38:31;2.90;;;1.13;;
20251;SDS011;10284;58.364;15.550;2022-08-01T08:40:56;1.95;;;0.80;;
20251;SDS011;10284;58.364;15.550;2022-08-01T08:43:22;1.65;;;1.00;;
20251;SDS011;10284;58.364;15.550;2022-08-01T08:45:50;1.17;;;0.98;;
20251;SDS011;10284;58.364;15.550;2022-08-01T08:48:16;1.85;;;1.15;;
20251;SDS011;10284;58.364;15.550;2022-08-01T08:50:42;1.70;;;1.23;;
20251;SDS011;10284;58.364;15.550;2022-08-01T08:53:09;1.95;;;1.00;;
20251;SDS011;10284;58.364;15.550;2022-08-01T08:55:35;1.08;;;0.98;;
20251;SDS011;10284;58.364;15.550;2022-08-01T08:58:02;2.45;;;1.00;;
20251;SDS011;10284;58.364;15.550;2022-08-01T09:00:30;2.72;;;1.20;;
20251;SDS011;10284;58.364;15.550;2022-08-01T09:02:57;2.88;;;1.45;;
20251;SDS011;10284;58.364;15.550;2022-08-01T09:05:22;3.33;;;1.08;;
20251;SDS011;10284;58.364;15.550;2022-08-01T09:07:51;3.17;;;1.00;;
20251;SDS011;10284;58.364;15.550;2022-08-01T09:10:17;1.92;;;1.00;;
20251;SDS011;10284;58.364;15.550;2022-08-01T09:13:01;0.90;;;0.85;;
20251;SDS011;10284;58.364;15.550;2022-08-01T09:18:04;2.20;;;1.10;;
20251;SDS011;10284;58.364;15.550;2022-08-01T09:20:30;1.30;;;0.93;;
20251;SDS011;10284;58.364;15.550;2022-08-01T09:22:55;1.83;;;0.90;;
20251;SDS011;10284;58.364;15.550;2022-08-01T09:25:20;2.78;;;1.00;;
20251;SDS011;10284;58.364;15.550;2022-08-01T09:27:46;1.77;;;0.80;;
20251;SDS011;10284;58.364;15.550;2022-08-01T09:30:13;1.45;;;1.00;;
20251;SDS011;10284;58.364;15.550;2022-08-01T09:32:52;1.55;;;1.02;;
20251;SDS011;10284;58.364;15.550;2022-08-01T09:35:31;1.25;;;0.98;;
20251;SDS011;10284;58.364;15.550;2022-08-01T09:40:48;1.30;;;0.88;;
20251;SDS011;10284;58.364;15.550;2022-08-01T09:43:18;2.63;;;1.02;;
20251;SDS011;10284;58.364;15.550;2022-08-01T09:45:44;2.20;;;0.80;;
20251;SDS011;10284;58.364;15.550;2022-08-01T09:48:09;1.77;;;1.10;;
20251;SDS011;10284;58.364;15.550;2022-08-01T09:50:44;1.45;;;0.90;;
20251;SDS011;10284;58.364;15.550;2022-08-01T09:53:13;1.77;;;0.90;;
20251;SDS011;10284;58.364;15.550;2022-08-01T09:55:40;2.05;;;0.90;;
20251;SDS011;10284;58.364;15.550;2022-08-01T09:58:06;1.95;;;0.93;;
20251;SDS011;10284;58.364;15.550;2022-08-01T10:00:32;1.75;;;0.85;;
20251;SDS011;10284;58.364;15.550;2022-08-01T10:02:59;0.93;;;0.82;;
20251;SDS011;10284;58.364;15.550;2022-08-01T10:05:32;2.95;;;1.20;;
20251;SDS011;10284;58.364;15.550;2022-08-01T10:08:00;0.82;;;0.80;;
20251;SDS011;10284;58.364;15.550;2022-08-01T10:10:28;1.90;;;1.00;;
20251;SDS011;10284;58.364;15.550;2022-08-01T10:12:55;4.85;;;1.05;;
20251;SDS011;10284;58.364;15.550;2022-08-01T10:15:22;2.78;;;0.90;;
20251;SDS011;10284;58.364;15.550;2022-08-01T10:17:58;1.45;;;0.80;;
20251;SDS011;10284;58.364;15.550;2022-08-01T10:20:26;1.00;;;0.90;;
20251;SDS011;10284;58.364;15.550;2022-08-01T10:22:53;2.55;;;1.17;;
20251;SDS011;10284;58.364;15.550;2022-08-01T10:25:19;1.23;;;0.95;;
20251;SDS011;10284;58.364;15.550;2022-08-01T10:27:45;1.10;;;1.00;;
20251;SDS011;10284;58.364;15.550;2022-08-01T10:30:14;2.00;;;0.90;;
20251;SDS011;10284;58.364;15.550;2022-08-01T10:32:40;2.20;;;1.17;;
20251;SDS011;10284;58.364;15.550;2022-08-01T10:35:08;2.45;;;1.05;;
20251;SDS011;10284;58.364;15.550;2022-08-01T10:37:34;1.83;;;1.25;;
20251;SDS011;10284;58.364;15.550;2022-08-01T10:40:00;2.85;;;1.52;;
20251;SDS011;10284;58.364;15.550;2022-08-01T10:42:26;1.95;;;1.20;;
20251;SDS011;10284;58.364;15.550;2022-08-01T10:44:52;1.55;;;1.40;;
20251;SDS011;10284;58.364;15.550;2022-08-01T10:47:21;2.33;;;1.35;;
20251;SDS011;10284;58.364;15.550;2022-08-01T10:52:21;3.65;;;1.45;;
20251;SDS011;10284;58.364;15.550;2022-08-01T10:54:46;2.33;;;1.20;;
20251;SDS011;10284;58.364;15.550;2022-08-01T10:57:12;1.35;;;1.13;;
20251;SDS011;10284;58.364;15.550;2022-08-01T10:59:51;1.33;;;1.23;;
20251;SDS011;10284;58.364;15.550;2022-08-01T11:02:25;4.15;;;1.48;;
20251;SDS011;10284;58.364;15.550;2022-08-01T11:05:00;2.33;;;1.55;;
20251;SDS011;10284;58.364;15.550;2022-08-01T11:07:36;2.72;;;1.30;;
20251;SDS011;10284;58.364;15.550;2022-08-01T11:10:10;1.80;;;1.33;;
20251;SDS011;10284;58.364;15.550;2022-08-01T11:12:44;3.83;;;1.35;;
20251;SDS011;10284;58.364;15.550;2022-08-01T11:17:36;2.03;;;1.35;;
20251;SDS011;10284;58.364;15.550;2022-08-01T11:20:10;3.35;;;2.00;;
20251;SDS011;10284;58.364;15.550;2022-08-01T11:30:49;3.25;;;2.45;;
20251;SDS011;10284;58.364;15.550;2022-08-01T11:33:17;3.25;;;2.95;;
20251;SDS011;10284;58.364;15.550;2022-08-01T11:38:46;4.03;;;2.60;;
20251;SDS011;10284;58.364;15.550;2022-08-01T11:41:14;2.95;;;2.67;;
20251;SDS011;10284;58.364;15.550;2022-08-01T11:43:57;5.05;;;2.30;;
20251;SDS011;10284;58.364;15.550;2022-08-01T11:54:40;5.78;;;3.05;;
20251;SDS011;10284;58.364;15.550;2022-08-01T11:57:07;3.67;;;3.22;;
20251;SDS011;10284;58.364;15.550;2022-08-01T11:59:38;4.38;;;3.03;;
20251;SDS011;10284;58.364;15.550;2022-08-01T12:02:14;3.70;;;2.72;;
20251;SDS011;10284;58.364;15.550;2022-08-01T12:04:47;3.65;;;2.90;;
20251;SDS011;10284;58.364;15.550;2022-08-01T12:07:14;3.17;;;2.80;;
20251;SDS011;10284;58.364;15.550;2022-08-01T12:09:39;4.32;;;3.10;;
20251;SDS011;10284;58.364;15.550;2022-08-01T12:12:05;4.63;;;3.22;;
20251;SDS011;10284;58.364;15.550;2022-08-01T12:14:31;5.43;;;3.28;;
20251;SDS011;10284;58.364;15.550;2022-08-01T12:16:56;3.63;;;3.15;;
20251;SDS011;10284;58.364;15.550;2022-08-01T12:19:23;4.95;;;3.05;;
20251;SDS011;10284;58.364;15.550;2022-08-01T12:22:08;3.92;;;3.08;;
20251;SDS011;10284;58.364;15.550;2022-08-01T12:24:35;4.70;;;3.28;;
20251;SDS011;10284;58.364;15.550;2022-08-01T12:27:02;3.88;;;2.88;;
20251;SDS011;10284;58.364;15.550;2022-08-01T12:29:33;4.50;;;2.78;;
20251;SDS011;10284;58.364;15.550;2022-08-01T12:32:20;4.38;;;3.10;;
20251;SDS011;10284;58.364;15.550;2022-08-01T12:34:47;5.80;;;3.38;;
20251;SDS011;10284;58.364;15.550;2022-08-01T12:37:13;7.15;;;3.33;;
20251;SDS011;10284;58.364;15.550;2022-08-01T12:39:39;3.65;;;3.10;;
20251;SDS011;10284;58.364;15.550;2022-08-01T12:42:07;5.57;;;3.53;;
20251;SDS011;10284;58.364;15.550;2022-08-01T12:44:35;5.10;;;3.08;;
20251;SDS011;10284;58.364;15.550;2022-08-01T12:47:01;6.15;;;3.10;;
20251;SDS011;10284;58.364;15.550;2022-08-01T12:49:27;3.92;;;3.17;;
20251;SDS011;10284;58.364;15.550;2022-08-01T12:51:53;4.60;;;2.95;;
20251;SDS011;10284;58.364;15.550;2022-08-01T12:54:19;5.60;;;3.00;;
20251;SDS011;10284;58.364;15.550;2022-08-01T12:56:44;3.40;;;2.97;;
20251;SDS011;10284;58.364;15.550;2022-08-01T12:59:28;5.38;;;3.50;;
20251;SDS011;10284;58.364;15.550;2022-08-01T13:01:54;6.13;;;3.70;;
20251;SDS011;10284;58.364;15.550;2022-08-01T13:04:22;5.05;;;3.70;;
20251;SDS011;10284;58.364;15.550;2022-08-01T13:06:52;5.35;;;4.18;;
20251;SDS011;10284;58.364;15.550;2022-08-01T13:09:18;5.75;;;3.75;;
20251;SDS011;10284;58.364;15.550;2022-08-01T13:11:44;8.13;;;3.45;;
20251;SDS011;10284;58.364;15.550;2022-08-01T13:14:10;7.38;;;3.20;;
20251;SDS011;10284;58.364;15.550;2022-08-01T13:16:52;5.55;;;3.30;;
20251;SDS011;10284;58.364;15.550;2022-08-01T13:19:17;5.50;;;3.20;;
20251;SDS011;10284;58.364;15.550;2022-08-01T13:21:55;4.10;;;3.30;;
20251;SDS011;10284;58.364;15.550;2022-08-01T13:24:28;5.10;;;3.30;;
20251;SDS011;10284;58.364;15.550;2022-08-01T13:29:32;3.75;;;3.10;;
20251;SDS011;10284;58.364;15.550;2022-08-01T13:32:00;3.20;;;2.88;;
20251;SDS011;10284;58.364;15.550;2022-08-01T13:34:37;3.38;;;2.55;;
20251;SDS011;10284;58.364;15.550;2022-08-01T13:37:03;7.18;;;2.92;;
20251;SDS011;10284;58.364;15.550;2022-08-01T13:39:29;3.42;;;3.13;;
20251;SDS011;10284;58.364;15.550;2022-08-01T13:42:10;4.25;;;3.20;;
20251;SDS011;10284;58.364;15.550;2022-08-01T13:44:37;4.45;;;2.83;;
20251;SDS011;10284;58.364;15.550;2022-08-01T13:47:03;5.15;;;3.30;;
20251;SDS011;10284;58.364;15.550;2022-08-01T13:49:29;3.60;;;3.00;;
20251;SDS011;10284;58.364;15.550;2022-08-01T13:51:54;6.75;;;3.20;;
20251;SDS011;10284;58.364;15.550;2022-08-01T13:54:20;5.40;;;2.92;;
20251;SDS011;10284;58.364;15.550;2022-08-01T13:56:45;4.72;;;3.13;;
20251;SDS011;10284;58.364;15.550;2022-08-01T13:59:13;3.30;;;2.70;;
20251;SDS011;10284;58.364;15.550;2022-08-01T14:01:39;3.63;;;2.90;;
20251;SDS011;10284;58.364;15.550;2022-08-01T14:04:04;6.43;;;3.50;;
20251;SDS011;10284;58.364;15.550;2022-08-01T14:06:30;7.25;;;3.25;;
20251;SDS011;10284;58.364;15.550;2022-08-01T14:08:56;4.85;;;2.95;;
20251;SDS011;10284;58.364;15.550;2022-08-01T14:11:22;4.53;;;2.92;;
20251;SDS011;10284;58.364;15.550;2022-08-01T14:13:47;4.85;;;2.83;;
20251;SDS011;10284;58.364;15.550;2022-08-01T14:16:12;5.07;;;3.10;;
20251;SDS011;10284;58.364;15.550;2022-08-01T14:18:38;3.75;;;3.40;;
20251;SDS011;10284;58.364;15.550;2022-08-01T14:21:03;5.03;;;3.15;;
20251;SDS011;10284;58.364;15.550;2022-08-01T14:23:29;4.90;;;3.40;;
20251;SDS011;10284;58.364;15.550;2022-08-01T14:25:54;3.10;;;2.80;;
20251;SDS011;10284;58.364;15.550;2022-08-01T14:28:20;3.03;;;2.80;;
20251;SDS011;10284;58.364;15.550;2022-08-01T14:30:45;4.15;;;3.40;;
20251;SDS011;10284;58.364;15.550;2022-08-01T14:33:11;4.38;;;3.28;;
20251;SDS011;10284;58.364;15.550;2022-08-01T14:35:37;5.13;;;2.92;;
20251;SDS011;10284;58.364;15.550;2022-08-01T14:38:03;4.63;;;3.20;;
20251;SDS011;10284;58.364;15.550;2022-08-01T14:40:28;3.92;;;2.95;;
20251;SDS011;10284;58.364;15.550;2022-08-01T14:42:54;3.63;;;3.10;;
20251;SDS011;10284;58.364;15.550;2022-08-01T14:45:19;4.15;;;3.20;;
20251;SDS011;10284;58.364;15.550;2022-08-01T14:47:45;5.05;;;3.17;;
20251;SDS011;10284;58.364;15.550;2022-08-01T14:50:12;5.03;;;3.38;;
20251;SDS011;10284;58.364;15.550;2022-08-01T14:52:39;4.15;;;3.22;;
20251;SDS011;10284;58.364;15.550;2022-08-01T14:55:05;5.90;;;3.55;;
20251;SDS011;10284;58.364;15.550;2022-08-01T14:57:32;9.85;;;3.90;;
20251;SDS011;10284;58.364;15.550;2022-08-01T14:59:57;3.70;;;3.35;;
20251;SDS011;10284;58.364;15.550;2022-08-01T15:02:23;8.25;;;3.97;;
20251;SDS011;10284;58.364;15.550;2022-08-01T15:04:49;5.43;;;3.90;;
20251;SDS011;10284;58.364;15.550;2022-08-01T15:07:15;3.90;;;3.47;;
20251;SDS011;10284;58.364;15.550;2022-08-01T15:09:40;4.35;;;3.75;;
20251;SDS011;10284;58.364;15.550;2022-08-01T15:12:06;4.07;;;3.00;;